createdAt,value
2023-02-23T00:00:07.045Z,5.75
2023-02-23T00:01:07.030Z,5.71
2023-02-23T00:02:07.041Z,5.66
2023-02-23T00:03:07.236Z,5.72
2023-02-23T00:04:07.008Z,5.72
2023-02-23T00:05:06.991Z,5.71
2023-02-23T00:06:06.997Z,5.66
2023-02-23T00:07:06.973Z,5.79
2023-02-23T00:08:06.956Z,5.72
2023-02-23T00:09:06.949Z,5.64
2023-02-23T00:10:06.935Z,5.68
2023-02-23T00:11:06.941Z,5.69
2023-02-23T00:12:06.929Z,5.66
2023-02-23T00:13:06.905Z,5.68
2023-02-23T00:14:06.887Z,5.65
2023-02-23T00:15:06.899Z,5.72
2023-02-23T00:16:06.929Z,5.71
2023-02-23T00:17:06.854Z,5.71
2023-02-23T00:18:06.843Z,5.62
2023-02-23T00:19:06.899Z,5.68
2023-02-23T00:20:06.823Z,5.69
2023-02-23T00:21:06.828Z,5.66
2023-02-23T00:22:06.797Z,5.71
2023-02-23T00:23:06.796Z,5.68
2023-02-23T00:24:06.774Z,5.65
2023-02-23T00:25:06.768Z,5.57
2023-02-23T00:26:06.788Z,5.66
2023-02-23T00:27:06.788Z,5.61
2023-02-23T00:28:06.760Z,5.56
2023-02-23T00:29:06.740Z,5.68
2023-02-23T00:30:06.715Z,5.65
2023-02-23T00:31:06.759Z,5.59
2023-02-23T00:32:06.956Z,5.65
2023-02-23T00:33:06.680Z,5.65
2023-02-23T00:34:06.695Z,5.64
2023-02-23T00:35:06.660Z,5.61
2023-02-23T00:36:06.648Z,5.64
2023-02-23T00:37:06.638Z,5.57
2023-02-23T00:38:06.625Z,5.68
2023-02-23T00:39:06.631Z,5.62
2023-02-23T00:40:06.608Z,5.64
2023-02-23T00:41:06.598Z,5.68
2023-02-23T00:42:06.689Z,5.69
2023-02-23T00:43:06.606Z,5.69
2023-02-23T00:44:06.578Z,5.75
2023-02-23T00:45:06.555Z,5.68
2023-02-23T00:46:06.580Z,5.69
2023-02-23T00:47:06.542Z,5.65
2023-02-23T00:48:06.698Z,5.62
2023-02-23T00:49:06.507Z,5.64
2023-02-23T00:50:06.493Z,5.61
2023-02-23T00:51:06.477Z,5.59
2023-02-23T00:52:06.470Z,5.62
2023-02-23T00:53:06.478Z,5.65
2023-02-23T00:54:06.447Z,5.57
2023-02-23T00:55:06.439Z,5.62
2023-02-23T00:56:06.431Z,5.59
2023-02-23T00:57:06.417Z,5.57
2023-02-23T00:58:06.421Z,5.59
2023-02-23T00:59:06.451Z,5.61
2023-02-23T01:00:06.407Z,5.66
2023-02-23T01:01:06.397Z,5.61
2023-02-23T01:02:06.431Z,5.65
2023-02-23T01:03:06.349Z,5.65
2023-02-23T01:04:06.336Z,5.65
2023-02-23T01:05:06.422Z,5.62
2023-02-23T01:06:06.331Z,5.53
2023-02-23T01:07:06.326Z,5.62
2023-02-23T01:08:06.289Z,5.66
2023-02-23T01:09:06.293Z,5.66
2023-02-23T01:10:06.264Z,5.62
2023-02-23T01:11:06.286Z,5.57
2023-02-23T01:12:06.243Z,5.59
2023-02-23T01:13:06.227Z,5.47
2023-02-23T01:14:06.226Z,5.48
2023-02-23T01:15:06.209Z,5.61
2023-02-23T01:16:06.216Z,5.62
2023-02-23T01:17:06.202Z,5.56
2023-02-23T01:18:06.171Z,5.62
2023-02-23T01:19:06.171Z,5.65
2023-02-23T01:20:06.186Z,5.64
2023-02-23T01:21:06.149Z,5.57
2023-02-23T01:22:06.131Z,5.57
2023-02-23T01:23:06.118Z,5.47
2023-02-23T01:24:06.194Z,5.57
2023-02-23T01:25:06.108Z,5.56
2023-02-23T01:26:06.083Z,5.48
2023-02-23T01:27:06.103Z,5.61
2023-02-23T01:28:06.064Z,5.54
2023-02-23T01:29:06.224Z,5.64
2023-02-23T01:30:06.038Z,5.56
2023-02-23T01:31:06.119Z,5.57
2023-02-23T01:32:06.166Z,5.56
2023-02-23T01:33:06.014Z,5.62
2023-02-23T01:34:06.072Z,5.54
2023-02-23T01:35:06.006Z,5.62
2023-02-23T01:36:05.971Z,5.59
2023-02-23T01:37:05.961Z,5.53
2023-02-23T01:38:05.948Z,5.61
2023-02-23T01:39:05.941Z,5.47
2023-02-23T01:40:05.939Z,5.44
2023-02-23T01:41:05.918Z,5.46
2023-02-23T01:42:05.908Z,5.41
2023-02-23T01:43:05.896Z,5.46
2023-02-23T01:44:05.972Z,5.44
2023-02-23T01:45:05.870Z,5.44
2023-02-23T01:46:05.902Z,5.47
2023-02-23T01:47:05.851Z,5.56
2023-02-23T01:48:05.858Z,5.61
2023-02-23T01:49:05.862Z,5.48
2023-02-23T01:50:05.812Z,5.47
2023-02-23T01:51:05.808Z,5.53
2023-02-23T01:52:05.869Z,5.46
2023-02-23T01:53:05.791Z,5.56
2023-02-23T01:55:14.589Z,5.51
2023-02-23T01:56:14.570Z,5.50
2023-02-23T01:57:14.565Z,5.54
2023-02-23T01:58:14.759Z,5.65
2023-02-23T01:59:14.550Z,5.47
2023-02-23T02:00:14.518Z,5.53
2023-02-23T02:01:14.544Z,5.61
2023-02-23T02:02:14.495Z,5.44
2023-02-23T02:03:14.507Z,5.47
2023-02-23T02:04:14.490Z,5.56
2023-02-23T02:05:14.507Z,5.44
2023-02-23T02:06:14.455Z,5.47
2023-02-23T02:07:14.445Z,5.50
2023-02-23T02:08:14.433Z,5.48
2023-02-23T02:09:14.469Z,5.50
2023-02-23T02:10:14.406Z,5.54
2023-02-23T02:11:14.393Z,5.51
2023-02-23T02:12:14.399Z,5.44
2023-02-23T02:13:14.381Z,5.38
2023-02-23T02:14:14.406Z,5.36
2023-02-23T02:15:15.275Z,5.41
2023-02-23T02:16:14.415Z,5.43
2023-02-23T02:17:14.338Z,5.43
2023-02-23T02:18:14.325Z,5.36
2023-02-23T02:19:14.349Z,5.38
2023-02-23T02:20:14.309Z,5.41
2023-02-23T02:21:14.288Z,5.44
2023-02-23T02:22:14.300Z,5.44
2023-02-23T02:23:14.270Z,5.46
2023-02-23T02:24:14.276Z,5.47
2023-02-23T02:25:14.314Z,5.44
2023-02-23T02:26:14.326Z,5.48
2023-02-23T02:27:14.221Z,5.44
2023-02-23T02:28:14.213Z,5.43
2023-02-23T02:29:14.201Z,5.41
2023-02-23T02:30:14.203Z,5.41
2023-02-23T02:31:14.193Z,5.36
2023-02-23T02:32:14.223Z,5.36
2023-02-23T02:33:14.165Z,5.43
2023-02-23T02:34:14.140Z,5.36
2023-02-23T02:35:14.161Z,5.41
2023-02-23T02:36:14.123Z,5.44
2023-02-23T02:37:14.108Z,5.32
2023-02-23T02:38:14.105Z,5.32
2023-02-23T02:39:14.088Z,5.32
2023-02-23T02:40:14.770Z,5.23
2023-02-23T02:41:14.176Z,5.26
2023-02-23T02:42:14.116Z,5.21
2023-02-23T02:43:14.241Z,5.23
2023-02-23T02:44:14.032Z,5.26
2023-02-23T02:45:14.047Z,5.25
2023-02-23T02:46:14.044Z,5.23
2023-02-23T02:47:14.977Z,5.21
2023-02-23T02:48:13.997Z,5.32
2023-02-23T02:49:14.048Z,5.25
2023-02-23T02:50:13.988Z,5.26
2023-02-23T02:51:14.025Z,5.26
2023-02-23T02:52:13.950Z,5.14
2023-02-23T02:53:13.934Z,5.11
2023-02-23T02:54:13.950Z,5.15
2023-02-23T02:55:13.911Z,5.07
2023-02-23T02:56:13.929Z,4.99
2023-02-23T02:57:13.888Z,5.08
2023-02-23T02:58:13.877Z,5.02
2023-02-23T02:59:13.890Z,5.10
2023-02-23T03:00:13.902Z,5.11
2023-02-23T03:01:13.911Z,5.14
2023-02-23T03:02:13.832Z,5.15
2023-02-23T03:03:13.843Z,5.12
2023-02-23T03:04:13.812Z,5.12
2023-02-23T03:05:13.871Z,5.12
2023-02-23T03:06:14.096Z,5.23
2023-02-23T03:07:13.826Z,5.12
2023-02-23T03:08:13.767Z,5.14
2023-02-23T03:09:13.751Z,5.21
2023-02-23T03:10:13.766Z,5.12
2023-02-23T03:11:13.750Z,5.11
2023-02-23T03:12:13.736Z,5.11
2023-02-23T03:13:13.710Z,5.15
2023-02-23T03:14:13.703Z,5.07
2023-02-23T03:15:13.704Z,5.10
2023-02-23T03:16:13.734Z,4.99
2023-02-23T03:17:13.672Z,5.02
2023-02-23T03:18:13.675Z,5.10
2023-02-23T03:19:13.673Z,5.00
2023-02-23T03:20:13.662Z,5.00
2023-02-23T03:21:13.893Z,5.04
2023-02-23T03:22:13.625Z,4.97
2023-02-23T03:23:14.244Z,4.97
2023-02-23T03:24:13.588Z,5.02
2023-02-23T03:25:13.601Z,5.05
2023-02-23T03:26:13.592Z,5.12
2023-02-23T03:27:13.558Z,5.04
2023-02-23T03:28:13.548Z,4.96
2023-02-23T03:29:13.536Z,5.02
2023-02-23T03:30:13.522Z,5.00
2023-02-23T03:31:13.589Z,5.02
2023-02-23T03:32:13.601Z,4.93
2023-02-23T03:33:13.486Z,4.96
2023-02-23T03:34:13.627Z,4.92
2023-02-23T03:35:13.473Z,4.89
2023-02-23T03:36:13.458Z,4.90
2023-02-23T03:37:13.464Z,4.87
2023-02-23T03:38:13.437Z,4.86
2023-02-23T03:39:13.447Z,4.92
2023-02-23T03:40:13.424Z,5.00
2023-02-23T03:41:13.400Z,4.93
2023-02-23T03:42:13.410Z,4.90
2023-02-23T03:43:13.378Z,4.93
2023-02-23T03:44:13.363Z,4.87
2023-02-23T03:45:13.356Z,4.93
2023-02-23T03:46:13.340Z,4.92
2023-02-23T03:47:13.332Z,4.89
2023-02-23T03:48:13.330Z,4.92
2023-02-23T03:49:13.305Z,4.87
2023-02-23T03:50:13.303Z,4.99
2023-02-23T03:51:13.787Z,4.89
2023-02-23T03:52:13.282Z,4.89
2023-02-23T03:53:13.279Z,4.84
2023-02-23T03:54:13.258Z,4.90
2023-02-23T03:55:13.333Z,4.87
2023-02-23T03:56:13.228Z,4.82
2023-02-23T03:57:13.246Z,4.87
2023-02-23T03:58:13.233Z,4.82
2023-02-23T03:59:13.200Z,4.89
2023-02-23T04:00:13.189Z,4.80
2023-02-23T04:01:13.191Z,4.82
2023-02-23T04:02:13.218Z,4.77
2023-02-23T04:03:13.188Z,4.78
2023-02-23T04:04:13.163Z,4.80
2023-02-23T04:05:13.128Z,4.67
2023-02-23T04:06:13.115Z,4.70
2023-02-23T04:07:13.106Z,4.74
2023-02-23T04:08:13.230Z,4.74
2023-02-23T04:09:13.093Z,4.73
2023-02-23T04:10:13.125Z,4.71
2023-02-23T04:11:13.112Z,4.77
2023-02-23T04:12:13.206Z,4.78
2023-02-23T04:13:13.044Z,4.70
2023-02-23T04:14:13.029Z,4.70
2023-02-23T04:15:13.062Z,4.73
2023-02-23T04:16:13.048Z,4.67
2023-02-23T04:17:13.022Z,4.68
2023-02-23T04:18:13.050Z,4.73
2023-02-23T04:19:12.975Z,4.71
2023-02-23T04:20:12.964Z,4.66
2023-02-23T04:21:13.019Z,4.77
2023-02-23T04:22:12.961Z,4.59
2023-02-23T04:23:12.929Z,4.68
2023-02-23T04:24:12.921Z,4.58
2023-02-23T04:25:13.057Z,4.67
2023-02-23T04:26:12.915Z,4.60
2023-02-23T04:27:12.912Z,4.62
2023-02-23T04:28:12.880Z,4.53
2023-02-23T04:29:12.942Z,4.55
2023-02-23T04:30:12.875Z,4.55
2023-02-23T04:31:12.861Z,4.63
2023-02-23T04:32:13.024Z,4.58
2023-02-23T04:33:12.828Z,4.60
2023-02-23T04:34:12.812Z,4.62
2023-02-23T04:35:12.808Z,4.62
2023-02-23T04:36:12.826Z,4.58
2023-02-23T04:37:12.782Z,4.55
2023-02-23T04:38:12.794Z,4.58
2023-02-23T04:39:12.758Z,4.60
2023-02-23T04:40:12.765Z,4.58
2023-02-23T04:41:12.742Z,4.55
2023-02-23T04:42:12.728Z,4.52
2023-02-23T04:43:12.834Z,4.50
2023-02-23T04:44:12.703Z,4.49
2023-02-23T04:45:12.708Z,4.52
2023-02-23T04:46:12.937Z,4.48
2023-02-23T04:47:12.670Z,4.44
2023-02-23T04:48:12.667Z,4.45
2023-02-23T04:49:12.668Z,4.45
2023-02-23T04:50:12.644Z,4.42
2023-02-23T04:51:12.632Z,4.48
2023-02-23T04:52:12.621Z,4.42
2023-02-23T04:53:12.632Z,4.49
2023-02-23T04:54:12.640Z,4.48
2023-02-23T04:55:12.595Z,4.45
2023-02-23T04:56:12.577Z,4.30
2023-02-23T04:57:12.568Z,4.38
2023-02-23T04:58:12.563Z,4.38
2023-02-23T04:59:12.562Z,4.31
2023-02-23T05:00:12.663Z,4.41
2023-02-23T05:01:12.602Z,4.38
2023-02-23T05:02:12.513Z,4.34
2023-02-23T05:03:12.505Z,4.31
2023-02-23T05:04:12.506Z,4.32
2023-02-23T05:05:12.516Z,4.16
2023-02-23T05:06:12.474Z,4.28
2023-02-23T05:07:12.465Z,4.34
2023-02-23T05:08:12.453Z,4.20
2023-02-23T05:09:12.453Z,4.17
2023-02-23T05:10:12.428Z,4.28
2023-02-23T05:11:12.415Z,4.16
2023-02-23T05:12:12.406Z,4.12
2023-02-23T05:13:12.391Z,4.24
2023-02-23T05:14:13.301Z,4.16
2023-02-23T05:15:12.495Z,4.10
2023-02-23T05:16:12.406Z,4.13
2023-02-23T05:17:12.347Z,4.12
2023-02-23T05:18:12.344Z,4.23
2023-02-23T05:19:12.329Z,4.19
2023-02-23T05:20:12.511Z,4.19
2023-02-23T05:21:12.307Z,4.20
2023-02-23T05:22:12.298Z,4.13
2023-02-23T05:23:12.291Z,4.16
2023-02-23T05:24:12.286Z,4.06
2023-02-23T05:25:12.291Z,4.14
2023-02-23T05:26:12.278Z,4.13
2023-02-23T05:27:12.246Z,4.13
2023-02-23T05:28:12.257Z,4.10
2023-02-23T05:29:12.228Z,4.14
2023-02-23T05:30:12.240Z,4.06
2023-02-23T05:31:12.439Z,4.08
2023-02-23T05:32:12.414Z,4.13
2023-02-23T05:33:12.181Z,4.14
2023-02-23T05:34:12.169Z,4.14
2023-02-23T05:35:12.150Z,4.16
2023-02-23T05:36:12.158Z,4.16
2023-02-23T05:37:12.181Z,4.02
2023-02-23T05:38:12.117Z,4.06
2023-02-23T05:39:12.108Z,4.02
2023-02-23T05:40:12.109Z,3.96
2023-02-23T05:41:12.106Z,3.95
2023-02-23T05:42:12.075Z,3.99
2023-02-23T05:43:12.067Z,4.04
2023-02-23T05:44:12.054Z,4.01
2023-02-23T05:45:12.056Z,3.99
2023-02-23T05:46:12.087Z,4.04
2023-02-23T05:47:12.042Z,3.98
2023-02-23T05:48:12.011Z,4.02
2023-02-23T05:49:12.781Z,4.04
2023-02-23T05:50:12.010Z,4.02
2023-02-23T05:51:11.976Z,3.99
2023-02-23T05:52:11.966Z,3.92
2023-02-23T05:53:11.961Z,3.92
2023-02-23T05:54:12.810Z,3.95
2023-02-23T05:55:11.952Z,3.99
2023-02-23T05:56:11.924Z,3.96
2023-02-23T05:57:11.908Z,3.92
2023-02-23T05:58:11.901Z,3.98
2023-02-23T05:59:11.896Z,3.99
2023-02-23T06:00:11.905Z,3.99
2023-02-23T06:01:11.869Z,3.92
2023-02-23T06:02:11.860Z,3.94
2023-02-23T06:03:11.867Z,3.95
2023-02-23T06:04:11.850Z,3.94
2023-02-23T06:05:11.871Z,3.87
2023-02-23T06:06:11.814Z,3.99
2023-02-23T06:07:11.812Z,3.96
2023-02-23T06:08:11.801Z,4.04
2023-02-23T06:09:11.784Z,3.96
2023-02-23T06:10:11.801Z,3.92
2023-02-23T06:11:11.825Z,3.83
2023-02-23T06:12:11.748Z,3.87
2023-02-23T06:13:11.743Z,3.95
2023-02-23T06:14:11.734Z,3.87
2023-02-23T06:15:11.726Z,3.84
2023-02-23T06:16:11.795Z,3.88
2023-02-23T06:17:11.792Z,3.87
2023-02-23T06:18:11.694Z,3.83
2023-02-23T06:19:11.703Z,3.88
2023-02-23T06:20:11.683Z,3.88
2023-02-23T06:21:11.651Z,3.95
2023-02-23T06:22:11.639Z,3.88
2023-02-23T06:23:11.643Z,3.92
2023-02-23T06:24:11.628Z,3.91
2023-02-23T06:25:11.608Z,3.98
2023-02-23T06:26:11.608Z,3.87
2023-02-23T06:27:11.585Z,3.87
2023-02-23T06:28:12.030Z,3.98
2023-02-23T06:29:11.586Z,3.98
2023-02-23T06:30:11.557Z,3.91
2023-02-23T06:31:11.661Z,4.01
2023-02-23T06:32:11.691Z,3.94
2023-02-23T06:33:11.536Z,4.04
2023-02-23T06:34:11.513Z,3.98
2023-02-23T06:35:11.515Z,4.12
2023-02-23T06:36:11.482Z,4.16
2023-02-23T06:37:11.490Z,4.19
2023-02-23T06:38:11.463Z,4.14
2023-02-23T06:39:11.451Z,4.19
2023-02-23T06:40:11.444Z,4.24
2023-02-23T06:41:11.795Z,4.19
2023-02-23T06:42:11.438Z,4.28
2023-02-23T06:43:11.414Z,4.37
2023-02-23T06:44:11.393Z,4.40
2023-02-23T06:45:11.395Z,4.49
2023-02-23T06:46:11.404Z,4.59
2023-02-23T06:47:11.538Z,4.56
2023-02-23T06:48:11.354Z,4.60
2023-02-23T06:49:11.345Z,4.50
2023-02-23T06:50:11.365Z,4.60
2023-02-23T06:51:11.363Z,4.56
2023-02-23T06:52:11.324Z,4.56
2023-02-23T06:53:11.302Z,4.56
2023-02-23T06:54:11.299Z,4.53
2023-02-23T06:55:11.284Z,4.58
2023-02-23T06:56:12.486Z,4.55
2023-02-23T06:57:11.257Z,4.58
2023-02-23T06:58:11.245Z,4.68
2023-02-23T06:59:11.276Z,4.73
2023-02-23T07:00:11.233Z,4.68
2023-02-23T07:01:11.226Z,4.87
2023-02-23T07:02:11.375Z,4.90
2023-02-23T07:03:11.224Z,5.02
2023-02-23T07:04:11.246Z,5.05
2023-02-23T07:05:11.168Z,5.02
2023-02-23T07:06:11.170Z,5.08
2023-02-23T07:07:11.192Z,5.11
2023-02-23T07:08:11.146Z,5.29
2023-02-23T07:09:11.157Z,5.39
2023-02-23T07:10:11.124Z,5.43
2023-02-23T07:11:11.111Z,5.53
2023-02-23T07:12:11.089Z,5.62
2023-02-23T07:13:11.102Z,5.66
2023-02-23T07:14:15.374Z,5.64
2023-02-23T07:15:12.086Z,5.61
2023-02-23T07:16:11.111Z,5.68
2023-02-23T07:17:12.674Z,5.75
2023-02-23T07:18:11.020Z,5.62
2023-02-23T07:19:11.005Z,5.68
2023-02-23T07:20:11.009Z,5.69
2023-02-23T07:21:11.009Z,5.84
2023-02-23T07:22:10.975Z,5.87
2023-02-23T07:23:11.014Z,5.94
2023-02-23T07:24:10.966Z,5.97
2023-02-23T07:25:10.944Z,6.04
2023-02-23T07:26:10.945Z,6.16
2023-02-23T07:27:10.919Z,6.22
2023-02-23T07:28:10.946Z,6.31
2023-02-23T07:29:10.900Z,6.38
2023-02-23T07:30:10.914Z,6.36
2023-02-23T07:31:10.872Z,6.38
2023-02-23T07:32:10.926Z,6.45
2023-02-23T07:33:10.881Z,6.44
2023-02-23T07:34:10.844Z,6.45
2023-02-23T07:35:10.832Z,6.52
2023-02-23T07:36:10.848Z,6.49
2023-02-23T07:37:10.812Z,6.63
2023-02-23T07:38:10.798Z,6.74
2023-02-23T07:39:10.832Z,6.75
2023-02-23T07:40:10.780Z,6.62
2023-02-23T07:41:10.766Z,6.46
2023-02-23T07:42:10.773Z,6.30
2023-02-23T07:43:10.753Z,6.41
2023-02-23T07:44:10.736Z,6.46
2023-02-23T07:45:10.737Z,6.48
2023-02-23T07:46:10.736Z,6.45
2023-02-23T07:47:10.711Z,6.51
2023-02-23T07:48:10.693Z,6.69
2023-02-23T07:49:10.690Z,6.72
2023-02-23T07:50:10.671Z,6.77
2023-02-23T07:51:10.776Z,6.49
2023-02-23T07:52:10.650Z,6.33
2023-02-23T07:53:10.638Z,6.30
2023-02-23T07:54:10.631Z,6.35
2023-02-23T07:55:17.760Z,6.44
2023-02-23T07:56:10.607Z,6.49
2023-02-23T07:57:10.595Z,6.63
2023-02-23T07:58:10.588Z,6.56
2023-02-23T07:59:10.573Z,6.56
2023-02-23T08:00:10.566Z,6.52
2023-02-23T08:01:10.619Z,6.62
2023-02-23T08:02:10.592Z,6.70
2023-02-23T08:03:10.526Z,6.84
2023-02-23T08:04:10.577Z,6.84
2023-02-23T08:05:10.550Z,6.92
2023-02-23T08:06:10.503Z,6.96
2023-02-23T08:07:10.487Z,7.14
2023-02-23T08:08:10.470Z,7.38
2023-02-23T08:09:10.465Z,7.50
2023-02-23T08:10:10.498Z,7.47
2023-02-23T08:11:10.495Z,7.40
2023-02-23T08:12:10.520Z,7.56
2023-02-23T08:13:10.419Z,7.56
2023-02-23T08:14:10.425Z,7.63
2023-02-23T08:15:10.402Z,7.80
2023-02-23T08:16:11.340Z,8.00
2023-02-23T08:17:10.393Z,8.16
2023-02-23T08:18:10.502Z,8.23
2023-02-23T08:19:10.353Z,8.24
2023-02-23T08:20:10.359Z,8.49
2023-02-23T08:21:10.435Z,8.70
2023-02-23T08:22:10.380Z,8.97
2023-02-23T08:23:10.344Z,9.06
2023-02-23T08:24:10.296Z,9.25
2023-02-23T08:25:10.284Z,9.26
2023-02-23T08:26:10.296Z,9.13
2023-02-23T08:27:10.303Z,9.21
2023-02-23T08:28:10.255Z,9.41
2023-02-23T08:29:10.249Z,9.56
2023-02-23T08:30:10.245Z,9.72
2023-02-23T08:31:10.429Z,9.83
2023-02-23T08:32:10.418Z,9.91
2023-02-23T08:33:10.194Z,9.94
2023-02-23T08:34:10.194Z,10.09
2023-02-23T08:35:10.186Z,10.16
2023-02-23T08:36:10.165Z,10.31
2023-02-23T08:37:13.843Z,10.25
2023-02-23T08:38:10.189Z,10.38
2023-02-23T08:39:10.148Z,10.35
2023-02-23T08:40:10.130Z,10.25
2023-02-23T08:41:10.104Z,10.02
2023-02-23T08:42:10.120Z,9.91
2023-02-23T08:43:10.168Z,9.79
2023-02-23T08:44:10.104Z,9.89
2023-02-23T08:45:10.064Z,9.76
2023-02-23T08:46:10.078Z,9.41
2023-02-23T08:47:10.047Z,9.23
2023-02-23T08:48:10.052Z,9.25
2023-02-23T08:49:10.035Z,9.31
2023-02-23T08:50:10.006Z,9.16
2023-02-23T08:51:10.010Z,9.21
2023-02-23T08:52:09.993Z,9.34
2023-02-23T08:53:10.004Z,9.51
2023-02-23T08:54:09.967Z,9.26
2023-02-23T08:55:09.950Z,9.11
2023-02-23T08:56:10.846Z,9.03
2023-02-23T08:57:12.277Z,9.03
2023-02-23T08:58:09.929Z,8.97
2023-02-23T08:59:09.988Z,8.64
2023-02-23T09:00:09.889Z,8.60
2023-02-23T09:01:09.906Z,8.76
2023-02-23T09:02:09.861Z,8.78
2023-02-23T09:03:09.875Z,8.66
2023-02-23T09:04:09.849Z,8.61
2023-02-23T09:05:09.874Z,8.52
2023-02-23T09:06:09.830Z,8.73
2023-02-23T09:07:09.892Z,8.84
2023-02-23T09:08:09.929Z,8.89
2023-02-23T09:09:09.795Z,8.97
2023-02-23T09:10:09.779Z,9.02
2023-02-23T09:11:09.776Z,9.22
2023-02-23T09:12:09.764Z,9.22
2023-02-23T09:13:09.779Z,9.23
2023-02-23T09:14:09.754Z,9.10
2023-02-23T09:15:09.760Z,9.04
2023-02-23T09:16:09.767Z,9.04
2023-02-23T09:17:09.748Z,9.13
2023-02-23T09:18:09.722Z,9.10
2023-02-23T09:19:09.708Z,9.21
2023-02-23T09:20:09.677Z,9.00
2023-02-23T09:21:09.677Z,8.85
2023-02-23T09:22:09.653Z,9.03
2023-02-23T09:23:09.666Z,8.99
2023-02-23T09:24:09.645Z,9.13
2023-02-23T09:25:09.621Z,9.26
2023-02-23T09:26:09.607Z,9.41
2023-02-23T09:27:09.604Z,9.51
2023-02-23T09:28:09.619Z,9.55
2023-02-23T09:29:09.582Z,9.65
2023-02-23T09:30:09.595Z,9.51
2023-02-23T09:31:09.673Z,9.23
2023-02-23T09:32:09.721Z,9.22
2023-02-23T09:33:09.568Z,9.26
2023-02-23T09:34:09.533Z,9.22
2023-02-23T09:35:09.519Z,9.16
2023-02-23T09:36:09.498Z,9.19
2023-02-23T09:37:09.539Z,9.22
2023-02-23T09:38:09.489Z,9.19
2023-02-23T09:39:09.485Z,9.29
2023-02-23T09:40:09.464Z,9.36
2023-02-23T09:41:09.443Z,9.40
2023-02-23T09:42:09.918Z,9.61
2023-02-23T09:43:09.422Z,9.64
2023-02-23T09:44:09.403Z,9.64
2023-02-23T09:45:09.406Z,9.69
2023-02-23T09:46:09.412Z,9.73
2023-02-23T09:47:11.434Z,9.77
2023-02-23T09:48:10.359Z,9.98
2023-02-23T09:49:09.363Z,10.09
2023-02-23T09:50:09.358Z,10.30
2023-02-23T09:51:09.332Z,10.35
2023-02-23T09:52:09.374Z,10.31
2023-02-23T09:53:09.314Z,10.40
2023-02-23T09:54:09.357Z,10.57
2023-02-23T09:55:09.289Z,10.84
2023-02-23T09:56:09.287Z,11.07
2023-02-23T09:57:09.489Z,11.36
2023-02-23T09:58:09.260Z,11.57
2023-02-23T09:59:10.119Z,11.66
2023-02-23T10:00:09.241Z,11.75
2023-02-23T10:01:09.279Z,11.80
2023-02-23T10:02:09.249Z,11.95
2023-02-23T10:03:09.869Z,12.29
2023-02-23T10:04:09.206Z,12.54
2023-02-23T10:05:09.226Z,12.98
2023-02-23T10:06:09.188Z,13.49
2023-02-23T10:07:09.161Z,13.62
2023-02-23T10:08:09.172Z,13.67
2023-02-23T10:09:09.193Z,13.77
2023-02-23T10:10:09.139Z,13.78
2023-02-23T10:11:09.128Z,14.08
2023-02-23T10:12:09.103Z,14.33
2023-02-23T10:13:09.115Z,14.58
2023-02-23T10:14:09.124Z,14.48
2023-02-23T10:15:09.653Z,14.29
2023-02-23T10:16:09.123Z,14.26
2023-02-23T10:17:09.065Z,14.62
2023-02-23T10:18:09.050Z,14.89
2023-02-23T10:19:09.042Z,15.18
2023-02-23T10:20:09.018Z,15.51
2023-02-23T10:21:09.016Z,15.77
2023-02-23T10:22:08.994Z,15.92
2023-02-23T10:23:08.988Z,16.12
2023-02-23T10:24:08.984Z,16.38
2023-02-23T10:25:08.970Z,16.53
2023-02-23T10:26:08.968Z,16.72
2023-02-23T10:27:08.934Z,16.96
2023-02-23T10:28:08.939Z,17.08
2023-02-23T10:29:08.923Z,17.05
2023-02-23T10:30:08.920Z,16.86
2023-02-23T10:31:09.065Z,16.58
2023-02-23T10:32:09.000Z,16.23
2023-02-23T10:33:08.875Z,15.83
2023-02-23T10:34:08.907Z,15.73
2023-02-23T10:35:08.904Z,15.97
2023-02-23T10:36:13.592Z,16.16
2023-02-23T10:37:09.819Z,16.26
2023-02-23T10:38:09.376Z,16.47
2023-02-23T10:39:08.825Z,16.57
2023-02-23T10:40:08.800Z,16.76
2023-02-23T10:41:08.786Z,16.94
2023-02-23T10:42:08.763Z,17.16
2023-02-23T10:43:08.756Z,17.46
2023-02-23T10:44:16.701Z,17.94
2023-02-23T10:45:09.734Z,18.28
2023-02-23T10:46:08.803Z,18.22
2023-02-23T10:47:08.723Z,18.22
2023-02-23T10:48:08.823Z,18.01
2023-02-23T10:49:08.724Z,18.04
2023-02-23T10:50:08.740Z,18.22
2023-02-23T10:51:08.743Z,18.20
2023-02-23T10:52:08.664Z,18.37
2023-02-23T10:53:08.642Z,18.34
2023-02-23T10:54:08.632Z,18.49
2023-02-23T10:55:08.640Z,18.59
2023-02-23T10:56:08.614Z,18.66
2023-02-23T10:57:08.612Z,18.95
2023-02-23T10:58:08.649Z,19.16
2023-02-23T10:59:08.574Z,18.86
2023-02-23T11:00:08.585Z,18.63
2023-02-23T11:01:08.573Z,18.53
2023-02-23T11:02:08.570Z,18.56
2023-02-23T11:03:08.576Z,18.63
2023-02-23T11:04:08.520Z,18.78
2023-02-23T11:05:08.562Z,18.88
2023-02-23T11:06:08.500Z,18.89
2023-02-23T11:07:08.576Z,18.81
2023-02-23T11:08:08.485Z,18.80
2023-02-23T11:09:08.482Z,19.07
2023-02-23T11:10:08.472Z,19.15
2023-02-23T11:11:08.448Z,19.21
2023-02-23T11:12:08.430Z,19.40
2023-02-23T11:13:08.421Z,19.49
2023-02-23T11:14:08.411Z,19.54
2023-02-23T11:15:08.428Z,19.36
2023-02-23T11:16:08.431Z,18.96
2023-02-23T11:17:08.375Z,18.70
2023-02-23T11:18:08.404Z,18.66
2023-02-23T11:19:08.351Z,18.73
2023-02-23T11:20:08.387Z,18.88
2023-02-23T11:21:08.322Z,19.00
2023-02-23T11:22:08.321Z,19.08
2023-02-23T11:23:14.302Z,19.00
2023-02-23T11:24:09.327Z,18.84
2023-02-23T11:25:08.305Z,18.71
2023-02-23T11:26:08.304Z,18.62
2023-02-23T11:27:08.271Z,18.44
2023-02-23T11:28:08.246Z,18.45
2023-02-23T11:29:08.232Z,18.20
2023-02-23T11:30:08.227Z,18.18
2023-02-23T11:31:08.344Z,18.23
2023-02-23T11:32:10.203Z,18.23
2023-02-23T11:33:08.189Z,18.23
2023-02-23T11:34:08.181Z,18.19
2023-02-23T11:35:08.176Z,17.85
2023-02-23T11:36:08.159Z,17.46
2023-02-23T11:37:08.144Z,17.42
2023-02-23T11:38:08.182Z,17.45
2023-02-23T11:39:08.165Z,17.44
2023-02-23T11:40:08.123Z,17.38
2023-02-23T11:41:08.097Z,17.04
2023-02-23T11:42:08.236Z,16.56
2023-02-23T11:43:08.455Z,16.21
2023-02-23T11:44:08.077Z,16.00
2023-02-23T11:45:08.182Z,15.80
2023-02-23T11:46:08.117Z,15.76
2023-02-23T11:47:08.106Z,15.83
2023-02-23T11:48:08.056Z,15.95
2023-02-23T11:49:08.012Z,15.90
2023-02-23T11:50:07.998Z,15.79
2023-02-23T11:51:07.989Z,15.75
2023-02-23T11:52:07.978Z,15.58
2023-02-23T11:53:07.975Z,15.51
2023-02-23T11:54:07.976Z,15.55
2023-02-23T11:55:07.973Z,15.57
2023-02-23T11:56:08.338Z,15.73
2023-02-23T11:57:07.937Z,15.97
2023-02-23T11:58:07.938Z,16.08
2023-02-23T11:59:07.916Z,16.10
2023-02-23T12:00:07.908Z,16.10
2023-02-23T12:01:07.881Z,16.04
2023-02-23T12:02:08.137Z,16.00
2023-02-23T12:03:07.908Z,15.73
2023-02-23T12:04:07.848Z,15.91
2023-02-23T12:05:07.897Z,15.98
2023-02-23T12:06:07.888Z,16.01
2023-02-23T12:07:07.816Z,16.05
2023-02-23T12:08:07.902Z,15.94
2023-02-23T12:09:07.800Z,15.95
2023-02-23T12:10:07.777Z,15.90
2023-02-23T12:11:07.890Z,15.97
2023-02-23T12:12:07.765Z,15.95
2023-02-23T12:13:07.828Z,15.72
2023-02-23T12:14:07.749Z,15.62
2023-02-23T12:15:07.746Z,15.58
2023-02-23T12:16:07.796Z,15.25
2023-02-23T12:17:07.771Z,15.31
2023-02-23T12:18:07.694Z,15.14
2023-02-23T12:19:07.699Z,14.89
2023-02-23T12:20:07.679Z,14.81
2023-02-23T12:21:07.659Z,14.78
2023-02-23T12:22:07.648Z,14.86
2023-02-23T12:23:07.686Z,14.94
2023-02-23T12:24:07.650Z,15.09
2023-02-23T12:25:07.618Z,15.18
2023-02-23T12:26:07.603Z,15.19
2023-02-23T12:27:07.615Z,15.24
2023-02-23T12:28:18.588Z,15.24
2023-02-23T12:29:08.579Z,15.17
2023-02-23T12:30:09.165Z,15.11
2023-02-23T12:31:07.547Z,15.15
2023-02-23T12:32:07.679Z,15.19
2023-02-23T12:33:07.519Z,15.25
2023-02-23T12:34:08.458Z,15.22
2023-02-23T12:35:07.504Z,15.11
2023-02-23T12:36:07.489Z,15.00
2023-02-23T12:37:07.531Z,15.03
2023-02-23T12:38:07.473Z,15.07
2023-02-23T12:39:07.452Z,15.19
2023-02-23T12:40:07.454Z,15.10
2023-02-23T12:41:07.429Z,15.03
2023-02-23T12:42:07.433Z,15.09
2023-02-23T12:43:07.445Z,15.24
2023-02-23T12:44:07.403Z,15.22
2023-02-23T12:45:07.577Z,15.17
2023-02-23T12:46:08.590Z,15.15
2023-02-23T12:47:07.365Z,15.04
2023-02-23T12:48:07.377Z,14.79
2023-02-23T12:49:07.357Z,14.79
2023-02-23T12:50:07.402Z,14.48
2023-02-23T12:51:07.326Z,14.50
2023-02-23T12:52:07.322Z,14.54
2023-02-23T12:53:07.317Z,14.59
2023-02-23T12:54:07.289Z,14.59
2023-02-23T12:55:07.297Z,14.79
2023-02-23T12:56:07.270Z,14.85
2023-02-23T12:57:07.256Z,14.88
2023-02-23T12:58:07.247Z,14.92
2023-02-23T12:59:07.309Z,14.66
2023-02-23T13:00:07.230Z,14.55
2023-02-23T13:01:07.257Z,14.41
2023-02-23T13:02:07.292Z,14.32
2023-02-23T13:03:07.195Z,14.15
2023-02-23T13:04:07.193Z,14.04
2023-02-23T13:05:07.211Z,14.00
2023-02-23T13:06:07.189Z,13.99
2023-02-23T13:07:07.160Z,14.04
2023-02-23T13:08:13.279Z,14.03
2023-02-23T13:09:08.129Z,13.85
2023-02-23T13:10:07.128Z,13.85
2023-02-23T13:11:07.121Z,13.74
2023-02-23T13:12:07.104Z,13.53